createdAt,value
2016-09-05T00:00:46.270Z,996.59
2016-09-05T00:01:46.296Z,996.51
2016-09-05T00:02:46.312Z,996.46
2016-09-05T00:03:46.333Z,996.51
2016-09-05T00:04:46.356Z,996.48
2016-09-05T00:05:46.374Z,996.46
2016-09-05T00:06:46.393Z,996.39
2016-09-05T00:07:46.414Z,996.45
2016-09-05T00:08:46.438Z,996.42
2016-09-05T00:09:46.456Z,996.49
2016-09-05T00:10:46.479Z,996.44
2016-09-05T00:11:46.498Z,996.48
2016-09-05T00:12:46.518Z,996.47
2016-09-05T00:13:46.545Z,996.45
2016-09-05T00:14:46.563Z,996.45
2016-09-05T00:15:46.581Z,996.49
2016-09-05T00:16:46.603Z,996.47
2016-09-05T00:17:46.622Z,996.49
2016-09-05T00:18:46.642Z,996.46
2016-09-05T00:19:46.665Z,996.47
2016-09-05T00:20:46.685Z,996.47
2016-09-05T00:21:46.703Z,996.58
2016-09-05T00:22:46.729Z,996.52
2016-09-05T00:23:46.743Z,996.59
2016-09-05T00:24:46.764Z,996.53
2016-09-05T00:25:46.786Z,996.51
2016-09-05T00:26:46.808Z,996.58
2016-09-05T00:27:46.827Z,996.56
2016-09-05T00:28:46.850Z,996.55
2016-09-05T00:29:46.872Z,996.53
2016-09-05T00:30:46.892Z,996.58
2016-09-05T00:31:46.914Z,996.56
2016-09-05T00:32:46.932Z,996.54
2016-09-05T00:33:46.954Z,996.58
2016-09-05T00:34:46.975Z,996.58
2016-09-05T00:35:46.995Z,996.6
2016-09-05T00:36:47.012Z,996.6
2016-09-05T00:37:47.035Z,996.64
2016-09-05T00:38:47.054Z,996.64
2016-09-05T00:39:47.074Z,996.61
2016-09-05T00:40:47.096Z,996.62
2016-09-05T00:41:47.116Z,996.64
2016-09-05T00:42:47.137Z,996.63
2016-09-05T00:43:47.158Z,996.59
2016-09-05T00:44:47.179Z,996.6
2016-09-05T00:45:47.202Z,996.65
2016-09-05T00:46:47.221Z,996.65
2016-09-05T00:47:47.239Z,996.66
2016-09-05T00:48:47.258Z,996.68
2016-09-05T00:49:47.282Z,996.7
2016-09-05T00:50:47.303Z,996.71
2016-09-05T00:51:47.324Z,996.69
2016-09-05T00:52:47.341Z,996.67
2016-09-05T00:53:47.366Z,996.7
2016-09-05T00:54:47.385Z,996.7
2016-09-05T00:55:47.405Z,996.69
2016-09-05T00:56:47.426Z,996.67
2016-09-05T00:57:47.449Z,996.68
2016-09-05T00:58:47.468Z,996.67
2016-09-05T00:59:47.488Z,996.67
2016-09-05T01:00:47.508Z,996.62
2016-09-05T01:01:47.530Z,996.68
2016-09-05T01:02:47.549Z,996.6
2016-09-05T01:03:47.583Z,996.66
2016-09-05T01:04:47.588Z,996.66
2016-09-05T01:05:47.610Z,996.64
2016-09-05T01:06:47.631Z,996.66
2016-09-05T01:07:47.653Z,996.64
2016-09-05T01:08:47.673Z,996.66
2016-09-05T01:09:47.693Z,996.76
2016-09-05T01:10:47.714Z,996.67
2016-09-05T01:11:47.733Z,996.68
2016-09-05T01:12:47.755Z,996.67
2016-09-05T01:13:47.775Z,996.68
2016-09-05T01:14:47.793Z,996.69
2016-09-05T01:15:47.815Z,996.68
2016-09-05T01:16:47.835Z,996.69
2016-09-05T01:17:47.857Z,996.69
2016-09-05T01:18:47.877Z,996.72
2016-09-05T01:19:47.897Z,996.69
2016-09-05T01:20:47.921Z,996.73
2016-09-05T01:21:47.941Z,996.72
2016-09-05T01:22:47.963Z,996.73
2016-09-05T01:23:47.981Z,996.78
2016-09-05T01:24:47.998Z,996.72
2016-09-05T01:25:48.018Z,996.74
2016-09-05T01:26:48.040Z,996.75
2016-09-05T01:27:48.063Z,996.71
2016-09-05T01:28:48.081Z,996.72
2016-09-05T01:29:48.103Z,996.77
2016-09-05T01:30:48.122Z,996.79
2016-09-05T01:31:48.145Z,996.8
2016-09-05T01:32:48.165Z,996.82
2016-09-05T01:33:48.182Z,996.79
2016-09-05T01:34:48.216Z,996.73
2016-09-05T01:35:48.223Z,996.71
2016-09-05T01:36:48.246Z,996.78
2016-09-05T01:37:48.266Z,996.72
2016-09-05T01:38:48.287Z,996.74
2016-09-05T01:39:48.309Z,996.76
2016-09-05T01:40:48.328Z,996.75
2016-09-05T01:41:48.349Z,996.79
2016-09-05T01:42:48.366Z,996.8
2016-09-05T01:43:48.388Z,996.77
2016-09-05T01:44:48.410Z,996.82
2016-09-05T01:45:48.427Z,996.79
2016-09-05T01:46:48.450Z,996.85
2016-09-05T01:47:48.471Z,996.84
2016-09-05T01:48:48.490Z,996.86
2016-09-05T01:49:48.513Z,996.85
2016-09-05T01:50:48.534Z,996.89
2016-09-05T01:51:48.556Z,996.91
2016-09-05T01:52:48.573Z,996.88
2016-09-05T01:53:48.594Z,996.89
2016-09-05T01:54:48.615Z,996.91
2016-09-05T01:55:48.632Z,996.95
2016-09-05T01:56:48.653Z,996.88
2016-09-05T01:57:48.677Z,996.92
2016-09-05T01:58:48.696Z,996.89
2016-09-05T01:59:48.717Z,996.9
2016-09-05T02:00:48.739Z,996.93
2016-09-05T02:01:48.760Z,996.84
2016-09-05T02:02:48.774Z,996.93
2016-09-05T02:03:48.796Z,996.94
2016-09-05T02:04:48.817Z,996.92
2016-09-05T02:05:48.840Z,996.87
2016-09-05T02:06:48.857Z,996.92
2016-09-05T02:07:48.879Z,996.96
2016-09-05T02:08:48.899Z,996.95
2016-09-05T02:09:48.934Z,996.97
2016-09-05T02:10:48.940Z,996.91
2016-09-05T02:11:48.960Z,996.96
2016-09-05T02:12:48.979Z,997.05
2016-09-05T02:13:48.998Z,997.01
2016-09-05T02:14:49.021Z,996.94
2016-09-05T02:15:49.044Z,996.98
2016-09-05T02:16:49.061Z,996.93
2016-09-05T02:17:49.085Z,996.93
2016-09-05T02:18:49.101Z,997
2016-09-05T02:19:49.120Z,996.92
2016-09-05T02:20:49.145Z,996.98
2016-09-05T02:21:49.165Z,997.01
2016-09-05T02:22:49.185Z,997.02
2016-09-05T02:23:49.206Z,997.03
2016-09-05T02:24:49.228Z,997.03
2016-09-05T02:25:49.250Z,996.97
2016-09-05T02:26:49.266Z,996.96
2016-09-05T02:27:49.287Z,996.94
2016-09-05T02:28:49.308Z,997.01
2016-09-05T02:29:49.328Z,997
2016-09-05T02:30:49.345Z,997
2016-09-05T02:31:49.370Z,996.99
2016-09-05T02:32:49.393Z,997.01
2016-09-05T02:33:49.405Z,997.11
2016-09-05T02:34:49.426Z,997.08
2016-09-05T02:35:49.450Z,997.16
2016-09-05T02:36:49.468Z,997.11
2016-09-05T02:37:49.487Z,997.15
2016-09-05T02:38:49.512Z,997.18
2016-09-05T02:39:49.532Z,997.14
2016-09-05T02:40:49.551Z,997.09
2016-09-05T02:41:49.568Z,997.18
2016-09-05T02:42:49.591Z,997.16
2016-09-05T02:43:49.611Z,997.13
2016-09-05T02:44:49.636Z,997.16
2016-09-05T02:45:49.655Z,997.12
2016-09-05T02:46:49.673Z,997.18
2016-09-05T02:47:49.693Z,997.21
2016-09-05T02:48:49.711Z,997.14
2016-09-05T02:49:49.732Z,997.18
2016-09-05T02:50:49.752Z,997.18
2016-09-05T02:51:49.773Z,997.16
2016-09-05T02:52:49.793Z,997.19
2016-09-05T02:53:49.832Z,997.23
2016-09-05T02:54:49.836Z,997.21
2016-09-05T02:55:49.853Z,997.25
2016-09-05T02:56:49.873Z,997.25
2016-09-05T02:57:49.895Z,997.23
2016-09-05T02:58:49.915Z,997.27
2016-09-05T02:59:49.939Z,997.24
2016-09-05T03:00:49.958Z,997.28
2016-09-05T03:01:49.981Z,997.24
2016-09-05T03:02:49.997Z,997.24
2016-09-05T03:03:50.019Z,997.27
2016-09-05T03:04:50.042Z,997.31
2016-09-05T03:05:50.060Z,997.27
2016-09-05T03:06:50.079Z,997.24
2016-09-05T03:07:50.102Z,997.31
2016-09-05T03:08:50.124Z,997.29
2016-09-05T03:09:50.143Z,997.26
2016-09-05T03:10:50.159Z,997.31
2016-09-05T03:11:50.182Z,997.33
2016-09-05T03:12:50.202Z,997.32
2016-09-05T03:13:50.222Z,997.3
2016-09-05T03:14:50.241Z,997.29
2016-09-05T03:15:50.264Z,997.29
2016-09-05T03:16:50.286Z,997.32
2016-09-05T03:17:50.304Z,997.32
2016-09-05T03:18:50.321Z,997.29
2016-09-05T03:19:50.344Z,997.31
2016-09-05T03:20:50.366Z,997.33
2016-09-05T03:21:50.384Z,997.34
2016-09-05T03:22:50.404Z,997.37
2016-09-05T03:23:50.428Z,997.39
2016-09-05T03:24:50.446Z,997.36
2016-09-05T03:25:50.464Z,997.43
2016-09-05T03:26:50.488Z,997.38
2016-09-05T03:27:50.506Z,997.35
2016-09-05T03:28:50.529Z,997.4
2016-09-05T03:29:50.548Z,997.44
2016-09-05T03:30:50.570Z,997.44
2016-09-05T03:31:50.588Z,997.43
2016-09-05T03:32:50.608Z,997.41
2016-09-05T03:33:50.630Z,997.43
2016-09-05T03:34:50.646Z,997.41
2016-09-05T03:35:50.667Z,997.46
2016-09-05T03:36:50.689Z,997.47
2016-09-05T03:37:50.710Z,997.45
2016-09-05T03:38:50.730Z,997.5
2016-09-05T03:39:50.748Z,997.53
2016-09-05T03:40:50.771Z,997.53
2016-09-05T03:41:50.790Z,997.55
2016-09-05T03:42:50.810Z,997.58
2016-09-05T03:43:50.831Z,997.57
2016-09-05T03:44:50.853Z,997.59
2016-09-05T03:45:50.874Z,997.59
2016-09-05T03:46:50.890Z,997.56
2016-09-05T03:47:50.914Z,997.59
2016-09-05T03:48:50.931Z,997.57
2016-09-05T03:49:50.955Z,997.6
2016-09-05T03:50:50.974Z,997.58
2016-09-05T03:51:50.997Z,997.61
2016-09-05T03:52:51.014Z,997.58
2016-09-05T03:53:51.031Z,997.6
2016-09-05T03:54:51.055Z,997.56
2016-09-05T03:55:51.077Z,997.63
2016-09-05T03:56:51.095Z,997.64
2016-09-05T03:57:51.117Z,997.68
2016-09-05T03:58:51.136Z,997.65
2016-09-05T03:59:51.157Z,997.62
2016-09-05T04:01:51.194Z,997.67
2016-09-05T04:02:51.220Z,997.63
2016-09-05T04:03:51.237Z,997.65
2016-09-05T04:04:51.256Z,997.66
2016-09-05T04:05:51.278Z,997.67
2016-09-05T04:06:51.297Z,997.66
2016-09-05T04:07:51.317Z,997.67
2016-09-05T04:08:51.337Z,997.71
2016-09-05T04:09:51.360Z,997.68
2016-09-05T04:10:51.377Z,997.68
2016-09-05T04:11:51.402Z,997.7
2016-09-05T04:12:51.417Z,997.74
2016-09-05T04:13:51.439Z,997.71
2016-09-05T04:14:51.459Z,997.76
2016-09-05T04:15:51.481Z,997.72
2016-09-05T04:16:51.498Z,997.79
2016-09-05T04:17:51.522Z,997.81
2016-09-05T04:18:51.540Z,997.8
2016-09-05T04:19:51.558Z,997.81
2016-09-05T04:20:51.583Z,997.82
2016-09-05T04:21:51.600Z,997.89
2016-09-05T04:22:51.622Z,997.84
2016-09-05T04:23:51.645Z,997.97
2016-09-05T04:24:51.682Z,997.94
2016-09-05T04:25:51.683Z,997.93
2016-09-05T04:26:51.721Z,997.9
2016-09-05T04:27:51.737Z,997.96
2016-09-05T04:28:51.811Z,997.98
2016-09-05T04:29:51.766Z,997.99
2016-09-05T04:30:51.801Z,997.92
2016-09-05T04:31:51.805Z,998
2016-09-05T04:32:51.839Z,998
2016-09-05T04:33:51.843Z,997.97
2016-09-05T04:34:51.897Z,998
2016-09-05T04:35:51.884Z,997.97
2016-09-05T04:36:51.934Z,998.09
2016-09-05T04:37:51.924Z,998.06
2016-09-05T04:38:51.944Z,998.11
2016-09-05T04:39:51.965Z,998.1
2016-09-05T04:40:51.985Z,998.12
2016-09-05T04:41:52.006Z,998.11
2016-09-05T04:42:52.031Z,998.15
2016-09-05T04:43:52.043Z,998.19
2016-09-05T04:44:52.070Z,998.23
2016-09-05T04:45:52.088Z,998.27
2016-09-05T04:46:52.106Z,998.31
2016-09-05T04:47:52.128Z,998.29
2016-09-05T04:48:52.144Z,998.31
2016-09-05T04:49:52.166Z,998.32
2016-09-05T04:50:52.186Z,998.31
2016-09-05T04:51:52.209Z,998.39
2016-09-05T04:52:52.228Z,998.42
2016-09-05T04:53:52.246Z,998.37
2016-09-05T04:54:52.268Z,998.4
2016-09-05T04:55:52.289Z,998.44
2016-09-05T04:56:52.307Z,998.47
2016-09-05T04:57:52.330Z,998.41
2016-09-05T04:58:52.351Z,998.49
2016-09-05T04:59:52.366Z,998.52
2016-09-05T05:00:52.391Z,998.53
2016-09-05T05:01:52.410Z,998.5
2016-09-05T05:02:52.430Z,998.52
2016-09-05T05:03:52.449Z,998.54
2016-09-05T05:04:52.467Z,998.55
2016-09-05T05:05:52.492Z,998.55
2016-09-05T05:06:52.512Z,998.57
2016-09-05T05:07:52.531Z,998.51
2016-09-05T05:08:52.551Z,998.56
2016-09-05T05:09:52.577Z,998.58
2016-09-05T05:10:52.588Z,998.55
2016-09-05T05:11:52.612Z,998.62
2016-09-05T05:12:52.631Z,998.57
2016-09-05T05:13:52.654Z,998.58
2016-09-05T05:14:52.671Z,998.61
2016-09-05T05:15:52.695Z,998.63
2016-09-05T05:16:52.712Z,998.7
2016-09-05T05:17:52.731Z,998.69
2016-09-05T05:18:52.752Z,998.72
2016-09-05T05:19:52.776Z,998.73
2016-09-05T05:20:52.794Z,998.7
2016-09-05T05:21:52.813Z,998.72
2016-09-05T05:22:52.832Z,998.73
2016-09-05T05:23:52.852Z,998.77
2016-09-05T05:24:52.872Z,998.75
2016-09-05T05:25:52.889Z,998.79
2016-09-05T05:26:52.914Z,998.79
2016-09-05T05:27:52.930Z,998.86
2016-09-05T05:28:52.952Z,998.91
2016-09-05T05:29:52.974Z,998.92
2016-09-05T05:30:52.993Z,998.89
2016-09-05T05:31:53.016Z,998.86
2016-09-05T05:32:53.031Z,998.92
2016-09-05T05:33:53.054Z,998.96
2016-09-05T05:34:53.075Z,998.95
2016-09-05T05:35:53.093Z,999.05
2016-09-05T05:36:53.116Z,999
2016-09-05T05:37:53.131Z,998.98
2016-09-05T05:38:53.153Z,999.04
2016-09-05T05:39:53.176Z,999.04
2016-09-05T05:40:53.193Z,999.03
2016-09-05T05:41:53.215Z,999.07
2016-09-05T05:42:53.240Z,999.09
2016-09-05T05:43:53.254Z,999.04
2016-09-05T05:44:53.274Z,999.09
2016-09-05T05:45:53.295Z,999.1
2016-09-05T05:46:53.318Z,999.14
2016-09-05T05:47:53.336Z,999.14
2016-09-05T05:48:53.352Z,999.13
2016-09-05T05:49:53.375Z,999.19
2016-09-05T05:50:53.397Z,999.19
2016-09-05T05:51:53.414Z,999.19
2016-09-05T05:52:53.435Z,999.19
2016-09-05T05:53:53.458Z,999.21
2016-09-05T05:54:53.476Z,999.27
2016-09-05T05:55:53.496Z,999.25
2016-09-05T05:56:53.521Z,999.26
2016-09-05T05:57:53.539Z,999.32
2016-09-05T05:58:53.555Z,999.3
2016-09-05T05:59:53.577Z,999.29
2016-09-05T06:00:53.598Z,999.28
2016-09-05T06:01:53.616Z,999.31
2016-09-05T06:02:53.636Z,999.26
2016-09-05T06:03:53.661Z,999.3
2016-09-05T06:04:53.680Z,999.3
2016-09-05T06:05:53.697Z,999.28
2016-09-05T06:06:53.717Z,999.3
2016-09-05T06:07:53.739Z,999.3
2016-09-05T06:08:53.756Z,999.34
2016-09-05T06:09:53.780Z,999.35
2016-09-05T06:10:53.798Z,999.33
2016-09-05T06:11:53.820Z,999.34
2016-09-05T06:12:53.837Z,999.33
2016-09-05T06:13:53.860Z,999.32
2016-09-05T06:14:53.882Z,999.31
2016-09-05T06:15:53.901Z,999.32
2016-09-05T06:16:53.920Z,999.37
2016-09-05T06:17:53.942Z,999.34
2016-09-05T06:18:53.959Z,999.39
2016-09-05T06:19:53.979Z,999.36
2016-09-05T06:20:54.001Z,999.41
2016-09-05T06:21:54.023Z,999.42
2016-09-05T06:22:54.042Z,999.46
2016-09-05T06:23:54.063Z,999.44
2016-09-05T06:24:54.082Z,999.35
2016-09-05T06:25:54.104Z,999.34
2016-09-05T06:26:54.123Z,999.38
2016-09-05T06:27:54.144Z,999.41
2016-09-05T06:28:54.166Z,999.4
2016-09-05T06:29:54.184Z,999.43
2016-09-05T06:30:54.206Z,999.42
2016-09-05T06:31:54.228Z,999.43
2016-09-05T06:32:54.244Z,999.47
2016-09-05T06:33:54.268Z,999.45
2016-09-05T06:34:54.288Z,999.43
2016-09-05T06:35:54.307Z,999.52
2016-09-05T06:36:54.326Z,999.52
2016-09-05T06:37:54.349Z,999.57
2016-09-05T06:38:54.370Z,999.57
2016-09-05T06:39:54.392Z,999.58
2016-09-05T06:40:54.411Z,999.59
2016-09-05T06:41:54.431Z,999.6
2016-09-05T06:42:54.450Z,999.57
2016-09-05T06:43:54.468Z,999.62
2016-09-05T06:44:54.488Z,999.67
2016-09-05T06:45:54.512Z,999.65
2016-09-05T06:46:54.531Z,999.64
2016-09-05T06:47:54.553Z,999.71
2016-09-05T06:48:54.572Z,999.69
2016-09-05T06:49:54.592Z,999.71
2016-09-05T06:50:54.610Z,999.7
2016-09-05T06:51:54.636Z,999.69
2016-09-05T06:52:54.652Z,999.69
2016-09-05T06:53:54.672Z,999.73
2016-09-05T06:54:54.695Z,999.83
2016-09-05T06:55:54.719Z,999.78
2016-09-05T06:56:54.734Z,999.8
2016-09-05T06:57:54.756Z,999.79
2016-09-05T06:58:54.777Z,999.84
2016-09-05T06:59:54.798Z,999.81
2016-09-05T07:00:54.815Z,999.82
2016-09-05T07:01:54.837Z,999.85
2016-09-05T07:02:54.858Z,999.83
2016-09-05T07:03:54.879Z,999.91
2016-09-05T07:04:54.897Z,999.87
2016-09-05T07:05:54.920Z,999.92
2016-09-05T07:06:54.943Z,999.95
2016-09-05T07:07:54.959Z,999.95
2016-09-05T07:08:54.983Z,999.92
2016-09-05T07:09:55.001Z,999.94
2016-09-05T07:10:55.023Z,1000.01
2016-09-05T07:11:55.040Z,999.99
2016-09-05T07:12:55.064Z,999.92
2016-09-05T07:13:55.085Z,999.98
2016-09-05T07:14:55.103Z,999.97
2016-09-05T07:15:55.128Z,1000.01
2016-09-05T07:16:55.149Z,1000.01
2016-09-05T07:17:55.169Z,1000.1
2016-09-05T07:18:55.188Z,1000.06
2016-09-05T07:19:55.211Z,1000.16
2016-09-05T07:20:55.229Z,1000.17
2016-09-05T07:21:55.250Z,1000.1
2016-09-05T07:22:55.269Z,1000.14
2016-09-05T07:23:55.288Z,1000.09
2016-09-05T07:24:55.310Z,1000.19
2016-09-05T07:25:55.332Z,1000.11
2016-09-05T07:26:55.353Z,1000.18
2016-09-05T07:27:55.374Z,1000.17
2016-09-05T07:28:55.395Z,1000.17
2016-09-05T07:29:55.415Z,1000.2
2016-09-05T07:30:55.437Z,1000.25
2016-09-05T07:31:55.454Z,1000.34
2016-09-05T07:32:55.477Z,1000.26
2016-09-05T07:33:55.499Z,1000.31
2016-09-05T07:34:55.517Z,1000.28
2016-09-05T07:35:55.540Z,1000.35
2016-09-05T07:36:55.556Z,1000.34
2016-09-05T07:37:55.577Z,1000.38
2016-09-05T07:38:55.596Z,1000.41
2016-09-05T07:39:55.623Z,1000.4
2016-09-05T07:40:55.639Z,1000.44
2016-09-05T07:41:55.659Z,1000.43
2016-09-05T07:42:55.680Z,1000.48
2016-09-05T07:43:55.703Z,1000.5
2016-09-05T07:44:55.725Z,1000.55
2016-09-05T07:45:55.744Z,1000.5
2016-09-05T07:46:55.764Z,1000.53
2016-09-05T07:47:55.786Z,1000.56
2016-09-05T07:48:55.805Z,1000.57
2016-09-05T07:49:55.827Z,1000.58
2016-09-05T07:50:55.850Z,1000.58
2016-09-05T07:51:55.869Z,1000.66
2016-09-05T07:52:55.892Z,1000.67
2016-09-05T07:53:55.913Z,1000.71
2016-09-05T07:54:55.933Z,1000.7
2016-09-05T07:55:55.951Z,1000.77
2016-09-05T07:56:55.975Z,1000.79
2016-09-05T07:57:55.996Z,1000.8
2016-09-05T07:58:56.016Z,1000.84
2016-09-05T07:59:56.038Z,1000.82
2016-09-05T08:00:56.055Z,1000.78
2016-09-05T08:01:56.080Z,1000.83
2016-09-05T08:02:56.097Z,1000.91
2016-09-05T08:03:56.118Z,1000.89
2016-09-05T08:04:56.139Z,1000.88
2016-09-05T08:05:56.163Z,1000.88
2016-09-05T08:06:56.179Z,1000.85
2016-09-05T08:07:56.198Z,1000.88
2016-09-05T08:08:56.225Z,1000.87
2016-09-05T08:09:56.242Z,1000.87
2016-09-05T08:10:56.261Z,1000.9
2016-09-05T08:11:56.283Z,1000.87
2016-09-05T08:12:56.306Z,1000.92
2016-09-05T08:13:56.324Z,1000.97
2016-09-05T08:14:56.344Z,1000.9
2016-09-05T08:15:56.369Z,1000.91
2016-09-05T08:16:56.389Z,1000.92
2016-09-05T08:17:56.409Z,1000.92
2016-09-05T08:18:56.431Z,1000.9
2016-09-05T08:19:56.454Z,1000.93
2016-09-05T08:20:56.472Z,1000.98
2016-09-05T08:21:56.492Z,1000.94
2016-09-05T08:22:56.516Z,1000.97
2016-09-05T08:23:56.538Z,1000.95
2016-09-05T08:24:56.559Z,1000.98
2016-09-05T08:25:56.577Z,1000.97
2016-09-05T08:26:56.614Z,1001
2016-09-05T08:27:56.621Z,1000.99
2016-09-05T08:28:56.643Z,1000.98
2016-09-05T08:29:56.665Z,1000.99
2016-09-05T08:30:56.683Z,1000.95
2016-09-05T08:31:56.706Z,1001.01
2016-09-05T08:32:56.723Z,1001.03
2016-09-05T08:33:56.747Z,1001.07
2016-09-05T08:34:56.768Z,1000.99
2016-09-05T08:35:56.789Z,1001.22
2016-09-05T08:36:56.811Z,1001.11
2016-09-05T08:37:56.832Z,1001.14
2016-09-05T08:38:56.856Z,1001.17
2016-09-05T08:39:56.877Z,1001.15
2016-09-05T08:40:56.899Z,1001.14
2016-09-05T08:41:56.918Z,1001.09
2016-09-05T08:42:56.939Z,1001.16
2016-09-05T08:43:56.958Z,1001.27
2016-09-05T08:44:56.982Z,1001.36
2016-09-05T08:45:57.005Z,1001.37
2016-09-05T08:46:57.027Z,1001.48
2016-09-05T08:47:57.044Z,1001.44
2016-09-05T08:48:57.066Z,1001.41
2016-09-05T08:49:57.093Z,1001.32
2016-09-05T08:50:57.111Z,1001.29
2016-09-05T08:51:57.132Z,1001.29
2016-09-05T08:52:57.155Z,1001.36
2016-09-05T08:53:57.178Z,1001.38
2016-09-05T08:54:57.195Z,1001.42
2016-09-05T08:55:57.215Z,1001.45
2016-09-05T08:56:57.241Z,1001.47
2016-09-05T08:57:57.260Z,1001.53
2016-09-05T08:58:57.281Z,1001.52
2016-09-05T08:59:57.302Z,1001.54
2016-09-05T09:00:57.325Z,1001.52
2016-09-05T09:01:57.345Z,1001.49
2016-09-05T09:02:57.365Z,1001.46
2016-09-05T09:03:57.391Z,1001.48
2016-09-05T09:04:57.413Z,1001.47
2016-09-05T09:05:57.434Z,1001.43
2016-09-05T09:06:57.454Z,1001.44
2016-09-05T09:07:57.481Z,1001.46
2016-09-05T09:08:57.501Z,1001.46
2016-09-05T09:09:57.522Z,1001.45
2016-09-05T09:10:57.542Z,1001.51
2016-09-05T09:11:57.566Z,1001.51
2016-09-05T09:12:57.587Z,1001.53
2016-09-05T09:13:57.606Z,1001.56
2016-09-05T09:14:57.634Z,1001.59
2016-09-05T09:15:57.654Z,1001.6
2016-09-05T09:16:57.678Z,1001.59
2016-09-05T09:17:57.700Z,1001.6
2016-09-05T09:18:57.722Z,1001.61
2016-09-05T09:19:57.748Z,1001.54
2016-09-05T09:20:57.764Z,1001.61
2016-09-05T09:21:57.792Z,1001.59
2016-09-05T09:22:57.810Z,1001.62
2016-09-05T09:23:57.830Z,1001.65
2016-09-05T09:24:57.856Z,1001.67
2016-09-05T09:25:57.878Z,1001.68
2016-09-05T09:26:57.903Z,1001.69
2016-09-05T09:27:57.921Z,1001.72
2016-09-05T09:28:57.950Z,1001.74
2016-09-05T09:29:57.971Z,1001.8
2016-09-05T09:30:57.992Z,1001.86
2016-09-05T09:31:58.013Z,1001.84
2016-09-05T09:32:58.037Z,1001.87
2016-09-05T09:33:58.062Z,1001.91
2016-09-05T09:34:58.088Z,1001.82
2016-09-05T09:35:58.104Z,1001.83
2016-09-05T09:36:58.127Z,1001.84
2016-09-05T09:37:58.150Z,1001.88
2016-09-05T09:38:58.176Z,1001.92
2016-09-05T09:39:58.198Z,1001.89
2016-09-05T09:40:58.217Z,1001.81
2016-09-05T09:41:58.242Z,1001.76
2016-09-05T09:42:58.263Z,1001.95
2016-09-05T09:43:58.285Z,1001.99
2016-09-05T09:44:58.313Z,1001.99
2016-09-05T09:45:58.330Z,1002.06
2016-09-05T09:46:58.354Z,1002.06
2016-09-05T09:47:58.378Z,1002.12
2016-09-05T09:48:58.400Z,1002.16
2016-09-05T09:49:58.421Z,1002.11
2016-09-05T09:50:58.454Z,1002.1
2016-09-05T09:51:58.465Z,1002.14
2016-09-05T09:52:58.487Z,1002.15
2016-09-05T09:53:58.513Z,1002.08
2016-09-05T09:54:58.533Z,1002.14
2016-09-05T09:55:58.558Z,1002.11
2016-09-05T09:56:58.581Z,1002.09
2016-09-05T09:57:58.608Z,1002.21
2016-09-05T09:58:58.627Z,1002.13
2016-09-05T09:59:58.648Z,1002.03
2016-09-05T10:00:58.671Z,1002.04
2016-09-05T10:01:58.691Z,1002.04
2016-09-05T10:02:58.712Z,1002.06
2016-09-05T10:03:58.740Z,1002.09
2016-09-05T10:04:58.761Z,1002.07
2016-09-05T10:05:58.782Z,1002.11
2016-09-05T10:06:58.803Z,1002.14
2016-09-05T10:07:58.831Z,1002.07
2016-09-05T10:08:58.848Z,1002.17
2016-09-05T10:09:58.880Z,1002.14
2016-09-05T10:10:58.896Z,1002.2
2016-09-05T10:11:58.922Z,1002.16
2016-09-05T10:12:58.940Z,1002.16
2016-09-05T10:13:58.964Z,1002.21
2016-09-05T10:14:58.986Z,1002.18
2016-09-05T10:15:59.010Z,1002.21
2016-09-05T10:16:59.034Z,1002.18
2016-09-05T10:17:59.056Z,1002.17
2016-09-05T10:18:59.081Z,1002.16
2016-09-05T10:19:59.101Z,1002.16
2016-09-05T10:20:59.126Z,1002.15
2016-09-05T10:21:59.149Z,1002.15
2016-09-05T10:22:59.170Z,1002.15
2016-09-05T10:23:59.193Z,1002.1
2016-09-05T10:24:59.220Z,1002.13
2016-09-05T10:25:59.244Z,1002.12
2016-09-05T10:26:59.263Z,1002.18
2016-09-05T10:27:59.288Z,1002.13
2016-09-05T10:28:59.307Z,1002.07
2016-09-05T10:29:59.333Z,1002.12
2016-09-05T10:30:59.352Z,1002.12
2016-09-05T10:31:59.376Z,1002.19
2016-09-05T10:32:59.400Z,1002.24
2016-09-05T10:33:59.421Z,1002.29
2016-09-05T10:34:59.443Z,1002.26
2016-09-05T10:35:59.468Z,1002.24
2016-09-05T10:36:59.492Z,1002.15
2016-09-05T10:37:59.512Z,1002.18
2016-09-05T10:38:59.533Z,1002.17
2016-09-05T10:39:59.558Z,1002.2
2016-09-05T10:40:59.580Z,1002.18
2016-09-05T10:41:59.605Z,1002.2
2016-09-05T10:42:59.626Z,1002.23
2016-09-05T10:43:59.646Z,1002.21
2016-09-05T10:44:59.673Z,1002.22
2016-09-05T10:45:59.696Z,1002.26
2016-09-05T10:46:59.720Z,1002.27
2016-09-05T10:47:59.740Z,1002.3
2016-09-05T10:48:59.764Z,1002.27
2016-09-05T10:49:59.784Z,1002.28
2016-09-05T10:50:59.807Z,1002.26
2016-09-05T10:51:59.832Z,1002.27
2016-09-05T10:52:59.854Z,1002.27
2016-09-05T10:53:59.875Z,1002.26
2016-09-05T10:54:59.899Z,1002.26
2016-09-05T10:55:59.918Z,1002.32
2016-09-05T10:56:59.941Z,1002.29
2016-09-05T10:57:59.965Z,1002.36
2016-09-05T10:58:59.986Z,1002.31
2016-09-05T11:00:00.009Z,1002.36
2016-09-05T11:01:00.030Z,1002.33
2016-09-05T11:02:00.058Z,1002.34
2016-09-05T11:03:00.078Z,1002.39
2016-09-05T11:04:00.099Z,1002.44
2016-09-05T11:05:00.120Z,1002.46
2016-09-05T11:06:00.141Z,1002.45
2016-09-05T11:07:00.168Z,1002.52
2016-09-05T11:08:00.187Z,1002.56
2016-09-05T11:09:00.209Z,1002.59
2016-09-05T11:10:00.235Z,1002.61
2016-09-05T11:11:00.257Z,1002.65
2016-09-05T11:12:00.281Z,1002.59
2016-09-05T11:13:00.302Z,1002.6
2016-09-05T11:14:00.324Z,1002.55
2016-09-05T11:15:00.347Z,1002.54
2016-09-05T11:16:00.366Z,1002.55
2016-09-05T11:17:00.392Z,1002.55
2016-09-05T11:18:00.415Z,1002.57
2016-09-05T11:19:00.434Z,1002.61
2016-09-05T11:20:00.454Z,1002.62
2016-09-05T11:21:00.481Z,1002.57
2016-09-05T11:22:00.498Z,1002.61
2016-09-05T11:23:00.524Z,1002.61
2016-09-05T11:24:00.546Z,1002.52
2016-09-05T11:25:00.566Z,1002.55
2016-09-05T11:26:00.590Z,1002.59
2016-09-05T11:27:00.610Z,1002.55
2016-09-05T11:28:00.634Z,1002.54
2016-09-05T11:29:00.660Z,1002.56
2016-09-05T11:30:00.678Z,1002.54
2016-09-05T11:31:00.702Z,1002.55
2016-09-05T11:32:00.723Z,1002.63
2016-09-05T11:33:00.749Z,1002.62
2016-09-05T11:34:00.769Z,1002.63
2016-09-05T11:35:00.792Z,1002.67
2016-09-05T11:36:00.811Z,1002.71
2016-09-05T11:37:00.838Z,1002.7
2016-09-05T11:38:00.859Z,1002.69
2016-09-05T11:39:00.881Z,1002.7
2016-09-05T11:40:00.907Z,1002.66
2016-09-05T11:41:00.930Z,1002.69
2016-09-05T11:42:00.949Z,1002.67
2016-09-05T11:43:00.969Z,1002.64
2016-09-05T11:44:00.996Z,1002.7
2016-09-05T11:45:01.015Z,1002.65
2016-09-05T11:46:01.037Z,1002.64
2016-09-05T11:47:01.060Z,1002.65
2016-09-05T11:48:01.080Z,1002.62
2016-09-05T11:49:01.102Z,1002.63
2016-09-05T11:50:01.127Z,1002.63
2016-09-05T11:51:01.148Z,1002.69
2016-09-05T11:52:01.176Z,1002.72
2016-09-05T11:53:01.193Z,1002.75
2016-09-05T11:54:01.214Z,1002.73
2016-09-05T11:55:01.241Z,1002.73
2016-09-05T11:56:01.259Z,1002.73
2016-09-05T11:57:01.285Z,1002.75
2016-09-05T11:58:01.307Z,1002.76
2016-09-05T11:59:01.327Z,1002.76
2016-09-05T12:01:01.375Z,1002.74
2016-09-05T12:02:01.400Z,1002.81
2016-09-05T12:03:01.420Z,1002.77
2016-09-05T12:04:01.442Z,1002.82
2016-09-05T12:05:01.466Z,1002.86
2016-09-05T12:06:01.487Z,1002.86
2016-09-05T12:07:01.510Z,1002.85
2016-09-05T12:08:01.530Z,1002.9
2016-09-05T12:09:01.558Z,1002.9
2016-09-05T12:10:01.583Z,1002.94
2016-09-05T12:11:01.597Z,1002.89
2016-09-05T12:12:01.621Z,1002.96
2016-09-05T12:13:01.645Z,1002.97
2016-09-05T12:14:01.666Z,1003
2016-09-05T12:15:01.688Z,1003.01
2016-09-05T12:16:01.711Z,1003.07
2016-09-05T12:17:01.734Z,1003.06
2016-09-05T12:18:01.758Z,1003.09
2016-09-05T12:19:01.778Z,1003.06
2016-09-05T12:20:01.803Z,1003.05
2016-09-05T12:21:01.828Z,1003.06
2016-09-05T12:22:01.846Z,1003.09
2016-09-05T12:23:01.873Z,1003.23
2016-09-05T12:24:01.890Z,1003.21